Flight Track Log - Related Links

Times and Time Zones

All times are in EDT time to prevent confusion due to time zone crossing. See the CPT8773 flight status page for this flight to view local times or setup timezone preferences in your user account.

Time Position Orientation Groundspeed Altitude Reporting Facility
EDT Latitude Longitude Course Direction KTS MPH feet Rate Location/Type
Wed 09:04:12 AM 43.0181 -106.5247 36° Northeast 136 157 7,900  Level Salt Lake Center
Wed 09:05:13 AM 43.0508 -106.5472 333° Northwest 137 158 8,400 541 Climbing Salt Lake Center
Wed 09:06:14 AM 43.0900 -106.5722 335° Northwest 137 158 9,000 595 Climbing Salt Lake Center
Wed 09:07:00 AM 42.9627 -106.3889 45° Northeast  Level FlightAware Approximate
Wed 09:07:14 AM 43.1242 -106.5889 340° North 136 157 9,600  Level Salt Lake Center
Wed 09:08:00 AM 42.9941 -106.3559 36° Northeast  Level FlightAware Approximate
Wed 09:08:15 AM 43.1556 -106.6075 337° Northwest 134 154 10,100  Level Salt Lake Center
Wed 09:09:00 AM 43.0255 -106.3245 36° Northeast  Level FlightAware Approximate
Wed 09:09:16 AM 43.1950 -106.6325 335° Northwest 137 158 10,600  Level Salt Lake Center
Wed 09:10:17 AM 43.2306 -106.6494 341° North 141 162 11,200 492 Climbing Salt Lake Center
Wed 09:11:18 AM 43.2628 -106.6683 337° Northwest 135 155 11,600 369 Climbing Salt Lake Center
Wed 09:12:27 AM 43.3036 -106.6894 339° North 137 158 12,000 185 Climbing Denver Center
Wed 09:13:28 AM 43.3325 -106.7394 308° West 151 174 12,000  Level Denver Center
Wed 09:14:29 AM 43.3564 -106.7878 304° West 159 183 12,000  Level Denver Center
Wed 09:15:30 AM 43.3886 -106.8400 310° West 160 184 12,000  Level Denver Center
Wed 09:16:31 AM 43.4156 -106.8839 310° West 157 181 12,000 49 Level Denver Center
Wed 09:17:32 AM 43.4467 -106.9264 315° West 157 181 12,100 49 Climbing Denver Center
Wed 09:18:33 AM 43.4814 -106.9661 320° Northwest 160 184 12,100 -49 Level Denver Center
Wed 09:19:34 AM 43.5153 -107.0058 320° Northwest 160 184 12,000  Descending Denver Center
Wed 09:20:36 AM 43.5519 -107.0400 326° Northwest 160 184 12,100  Climbing Denver Center
Wed 09:21:37 AM 43.5892 -107.0736 327° Northwest 161 185 12,000 -106 Descending Denver Center
Wed 09:22:29 AM 43.6008 -107.1328 285° West 158 182 11,900 -53 Descending Salt Lake Center
Wed 09:23:30 AM 43.6053 -107.1975 275° West 167 192 11,900  Level Salt Lake Center
Wed 09:24:31 AM 43.6142 -107.2592 281° West 166 191 11,900  Level Salt Lake Center
Wed 09:25:32 AM 43.6314 -107.3164 293° West 164 189 11,900 49 Level Salt Lake Center
Wed 09:26:34 AM 43.6594 -107.3644 309° West 162 186 12,000 49 Climbing Salt Lake Center
Wed 09:27:35 AM 43.6858 -107.4139 306° West 161 185 12,000  Level Salt Lake Center
Wed 09:28:36 AM 43.7133 -107.4636 307° West 162 186 12,000  Level Salt Lake Center
Wed 09:29:37 AM 43.7386 -107.5153 304° West 162 186 12,000  Level Salt Lake Center
Wed 09:30:38 AM 43.7653 -107.5633 308° West 161 185 12,000  Level Salt Lake Center
Wed 09:31:39 AM 43.7911 -107.6144 305° West 161 185 12,000  Level Salt Lake Center
Wed 09:32:41 AM 43.8225 -107.6756 305° West 161 185 12,000  Level Salt Lake Center
Wed 09:33:42 AM 43.8483 -107.7264 305° West 162 186 12,000  Level Salt Lake Center
Wed 09:34:43 AM 43.8747 -107.7767 306° West 162 186 12,000  Level Salt Lake Center
Wed 09:35:44 AM 43.9003 -107.8267 305° West 161 185 12,000  Level Salt Lake Center
Wed 09:36:46 AM 43.9261 -107.8781 305° West 161 185 12,000  Level Salt Lake Center
Wed 09:37:47 AM 43.9525 -107.9294 306° West 162 186 12,000  Level Salt Lake Center
Wed 09:38:48 AM 43.9792 -107.9797 306° West 163 188 12,000  Level Salt Lake Center
Wed 09:39:50 AM 44.0097 -108.0278 311° West 164 189 12,000  Level Salt Lake Center
Wed 09:40:51 AM 44.0361 -108.0767 307° West 163 188 12,000  Level Salt Lake Center
Wed 09:41:52 AM 44.0689 -108.1378 307° West 162 186 12,000  Level Salt Lake Center
Wed 09:42:54 AM 44.0958 -108.1900 306° West 164 189 12,000  Level Salt Lake Center
Wed 09:43:55 AM 44.1214 -108.2422 304° West 164 189 12,000  Level Salt Lake Center
Wed 09:44:57 AM 44.1483 -108.2928 307° West 164 189 12,000  Level Salt Lake Center
Wed 09:45:58 AM 44.1744 -108.3442 305° West 163 188 12,000  Level Salt Lake Center
Wed 09:47:00 AM 44.2014 -108.3958 306° West 163 188 12,000  Level Salt Lake Center
Wed 09:48:01 AM 44.2275 -108.4467 306° West 163 188 12,000  Level Salt Lake Center
Wed 09:49:03 AM 44.2533 -108.4986 305° West 163 188 12,000  Level Salt Lake Center
Wed 09:50:04 AM 44.2792 -108.5500 305° West 162 186 12,000  Level Salt Lake Center
Wed 09:51:06 AM 44.3106 -108.6111 306° West 162 186 12,000 -48 Level Salt Lake Center
Wed 09:52:08 AM 44.3375 -108.6628 306° West 163 188 11,900 -439 Descending Salt Lake Center
Wed 09:53:09 AM 44.3644 -108.7169 305° West 165 190 11,100 -732 Descending Salt Lake Center
Wed 09:54:11 AM 44.3925 -108.7739 305° West 171 197 10,400 -677 Descending Salt Lake Center
Wed 09:55:13 AM 44.4219 -108.8314 306° West 176 203 9,700 -683 Descending Salt Lake Center
Wed 09:56:14 AM 44.4506 -108.8850 307° West 176 203 9,000 -878 Descending Salt Lake Center
Wed 09:57:16 AM 44.4786 -108.9392 306° West 174 200 7,900 -1,065 Descending Salt Lake Center

Login

Don't have an account? Register now (free) for customized features, flight alerts, and more!